sensor_id;sensor_type;location;lat;lon;timestamp;P1;durP1;ratioP1;P2;durP2;ratioP2
18172;SDS011;9211;48.818;9.312;2023-03-14T00:00:50;1.17;;;0.50;;
18172;SDS011;9211;48.818;9.312;2023-03-14T00:03:17;0.95;;;0.50;;
18172;SDS011;9211;48.818;9.312;2023-03-14T00:05:44;0.87;;;0.50;;
18172;SDS011;9211;48.818;9.312;2023-03-14T00:08:11;1.40;;;0.60;;
18172;SDS011;9211;48.818;9.312;2023-03-14T00:10:38;1.13;;;0.63;;
18172;SDS011;9211;48.818;9.312;2023-03-14T00:13:06;1.38;;;0.60;;
18172;SDS011;9211;48.818;9.312;2023-03-14T00:15:33;2.05;;;0.50;;
18172;SDS011;9211;48.818;9.312;2023-03-14T00:18:01;1.80;;;0.50;;
18172;SDS011;9211;48.818;9.312;2023-03-14T00:20:28;1.25;;;0.50;;
18172;SDS011;9211;48.818;9.312;2023-03-14T00:22:55;1.48;;;0.55;;
18172;SDS011;9211;48.818;9.312;2023-03-14T00:25:22;0.73;;;0.45;;
18172;SDS011;9211;48.818;9.312;2023-03-14T00:27:50;1.20;;;0.70;;
18172;SDS011;9211;48.818;9.312;2023-03-14T00:30:17;1.63;;;0.50;;
18172;SDS011;9211;48.818;9.312;2023-03-14T00:32:45;1.15;;;0.60;;
18172;SDS011;9211;48.818;9.312;2023-03-14T00:35:15;1.37;;;0.60;;
18172;SDS011;9211;48.818;9.312;2023-03-14T00:37:42;0.90;;;0.50;;
18172;SDS011;9211;48.818;9.312;2023-03-14T00:40:09;1.23;;;0.52;;
18172;SDS011;9211;48.818;9.312;2023-03-14T00:42:37;1.48;;;0.50;;
18172;SDS011;9211;48.818;9.312;2023-03-14T00:45:04;1.10;;;0.50;;
18172;SDS011;9211;48.818;9.312;2023-03-14T00:47:32;1.10;;;0.40;;
18172;SDS011;9211;48.818;9.312;2023-03-14T00:49:59;1.70;;;0.50;;
18172;SDS011;9211;48.818;9.312;2023-03-14T00:52:28;0.60;;;0.40;;
18172;SDS011;9211;48.818;9.312;2023-03-14T00:54:55;1.93;;;0.43;;
18172;SDS011;9211;48.818;9.312;2023-03-14T00:57:22;0.83;;;0.40;;
18172;SDS011;9211;48.818;9.312;2023-03-14T00:59:50;1.00;;;0.50;;
18172;SDS011;9211;48.818;9.312;2023-03-14T01:02:17;0.80;;;0.40;;
18172;SDS011;9211;48.818;9.312;2023-03-14T01:04:44;1.35;;;0.40;;
18172;SDS011;9211;48.818;9.312;2023-03-14T01:07:14;0.82;;;0.40;;
18172;SDS011;9211;48.818;9.312;2023-03-14T01:09:42;1.10;;;0.40;;
18172;SDS011;9211;48.818;9.312;2023-03-14T01:12:09;1.47;;;0.47;;
18172;SDS011;9211;48.818;9.312;2023-03-14T01:14:36;1.33;;;0.53;;
18172;SDS011;9211;48.818;9.312;2023-03-14T01:17:03;2.70;;;0.50;;
18172;SDS011;9211;48.818;9.312;2023-03-14T01:19:30;1.10;;;0.50;;
18172;SDS011;9211;48.818;9.312;2023-03-14T01:21:58;0.75;;;0.30;;
18172;SDS011;9211;48.818;9.312;2023-03-14T01:24:25;1.48;;;0.40;;
18172;SDS011;9211;48.818;9.312;2023-03-14T01:26:53;1.13;;;0.40;;
18172;SDS011;9211;48.818;9.312;2023-03-14T01:29:23;0.65;;;0.30;;
18172;SDS011;9211;48.818;9.312;2023-03-14T01:31:50;1.25;;;0.32;;
18172;SDS011;9211;48.818;9.312;2023-03-14T01:34:17;0.70;;;0.30;;
18172;SDS011;9211;48.818;9.312;2023-03-14T01:36:44;1.13;;;0.40;;
18172;SDS011;9211;48.818;9.312;2023-03-14T01:39:11;3.58;;;0.47;;
18172;SDS011;9211;48.818;9.312;2023-03-14T01:41:39;0.77;;;0.30;;
18172;SDS011;9211;48.818;9.312;2023-03-14T01:44:09;0.43;;;0.38;;
18172;SDS011;9211;48.818;9.312;2023-03-14T01:46:38;0.65;;;0.30;;
18172;SDS011;9211;48.818;9.312;2023-03-14T01:49:10;0.50;;;0.30;;
18172;SDS011;9211;48.818;9.312;2023-03-14T01:51:54;0.87;;;0.40;;
18172;SDS011;9211;48.818;9.312;2023-03-14T01:54:25;2.00;;;0.50;;
18172;SDS011;9211;48.818;9.312;2023-03-14T01:56:57;1.55;;;0.35;;
18172;SDS011;9211;48.818;9.312;2023-03-14T01:59:30;0.50;;;0.30;;
18172;SDS011;9211;48.818;9.312;2023-03-14T02:01:59;1.20;;;0.50;;
18172;SDS011;9211;48.818;9.312;2023-03-14T02:04:30;1.30;;;0.40;;
18172;SDS011;9211;48.818;9.312;2023-03-14T02:07:03;0.98;;;0.50;;
18172;SDS011;9211;48.818;9.312;2023-03-14T02:09:40;1.63;;;0.40;;
18172;SDS011;9211;48.818;9.312;2023-03-14T02:12:14;2.10;;;0.50;;
18172;SDS011;9211;48.818;9.312;2023-03-14T02:14:48;1.00;;;0.40;;
18172;SDS011;9211;48.818;9.312;2023-03-14T02:17:28;1.10;;;0.45;;
18172;SDS011;9211;48.818;9.312;2023-03-14T02:20:30;1.30;;;0.40;;
18172;SDS011;9211;48.818;9.312;2023-03-14T02:23:03;1.02;;;0.45;;
18172;SDS011;9211;48.818;9.312;2023-03-14T02:25:33;1.70;;;0.40;;
18172;SDS011;9211;48.818;9.312;2023-03-14T02:28:07;1.30;;;0.40;;
18172;SDS011;9211;48.818;9.312;2023-03-14T02:30:36;0.77;;;0.32;;
18172;SDS011;9211;48.818;9.312;2023-03-14T02:33:05;1.90;;;0.40;;
18172;SDS011;9211;48.818;9.312;2023-03-14T02:35:35;1.17;;;0.30;;
18172;SDS011;9211;48.818;9.312;2023-03-14T02:38:06;0.90;;;0.40;;
18172;SDS011;9211;48.818;9.312;2023-03-14T02:40:42;2.40;;;0.40;;
18172;SDS011;9211;48.818;9.312;2023-03-14T02:43:11;0.70;;;0.40;;
18172;SDS011;9211;48.818;9.312;2023-03-14T02:45:44;0.93;;;0.40;;
18172;SDS011;9211;48.818;9.312;2023-03-14T02:48:16;0.40;;;0.30;;
18172;SDS011;9211;48.818;9.312;2023-03-14T02:50:47;1.20;;;0.50;;
18172;SDS011;9211;48.818;9.312;2023-03-14T02:53:17;0.90;;;0.40;;
18172;SDS011;9211;48.818;9.312;2023-03-14T02:55:47;1.50;;;0.40;;
18172;SDS011;9211;48.818;9.312;2023-03-14T02:58:18;1.27;;;0.50;;
18172;SDS011;9211;48.818;9.312;2023-03-14T03:03:25;1.25;;;0.38;;
18172;SDS011;9211;48.818;9.312;2023-03-14T03:05:53;1.83;;;0.43;;
18172;SDS011;9211;48.818;9.312;2023-03-14T03:08:22;0.40;;;0.30;;
18172;SDS011;9211;48.818;9.312;2023-03-14T03:10:51;1.10;;;0.40;;
18172;SDS011;9211;48.818;9.312;2023-03-14T03:13:19;0.90;;;0.40;;
18172;SDS011;9211;48.818;9.312;2023-03-14T03:15:51;1.90;;;0.40;;
18172;SDS011;9211;48.818;9.312;2023-03-14T03:18:18;0.68;;;0.32;;
18172;SDS011;9211;48.818;9.312;2023-03-14T03:20:45;0.68;;;0.43;;
18172;SDS011;9211;48.818;9.312;2023-03-14T03:23:12;1.10;;;0.30;;
18172;SDS011;9211;48.818;9.312;2023-03-14T03:25:39;1.45;;;0.40;;
18172;SDS011;9211;48.818;9.312;2023-03-14T03:28:06;2.10;;;0.40;;
18172;SDS011;9211;48.818;9.312;2023-03-14T03:30:40;1.58;;;0.40;;
18172;SDS011;9211;48.818;9.312;2023-03-14T03:33:08;1.17;;;0.50;;
18172;SDS011;9211;48.818;9.312;2023-03-14T03:35:41;1.63;;;0.40;;
18172;SDS011;9211;48.818;9.312;2023-03-14T03:38:10;0.85;;;0.40;;
18172;SDS011;9211;48.818;9.312;2023-03-14T03:40:37;1.08;;;0.40;;
18172;SDS011;9211;48.818;9.312;2023-03-14T03:43:06;1.33;;;0.43;;
18172;SDS011;9211;48.818;9.312;2023-03-14T03:45:36;0.85;;;0.40;;
18172;SDS011;9211;48.818;9.312;2023-03-14T03:48:06;3.20;;;0.50;;
18172;SDS011;9211;48.818;9.312;2023-03-14T03:50:33;3.28;;;0.52;;
18172;SDS011;9211;48.818;9.312;2023-03-14T03:53:00;2.58;;;0.70;;
18172;SDS011;9211;48.818;9.312;2023-03-14T03:55:27;2.22;;;0.60;;
18172;SDS011;9211;48.818;9.312;2023-03-14T03:57:54;1.77;;;0.50;;
18172;SDS011;9211;48.818;9.312;2023-03-14T04:00:21;3.15;;;0.60;;
18172;SDS011;9211;48.818;9.312;2023-03-14T04:02:48;2.20;;;0.60;;
18172;SDS011;9211;48.818;9.312;2023-03-14T04:05:18;3.03;;;0.60;;
18172;SDS011;9211;48.818;9.312;2023-03-14T04:07:52;2.53;;;0.60;;
18172;SDS011;9211;48.818;9.312;2023-03-14T04:10:23;2.30;;;0.60;;
18172;SDS011;9211;48.818;9.312;2023-03-14T04:13:03;2.50;;;0.60;;
18172;SDS011;9211;48.818;9.312;2023-03-14T04:15:32;2.40;;;0.70;;
18172;SDS011;9211;48.818;9.312;2023-03-14T04:18:03;2.90;;;0.60;;
18172;SDS011;9211;48.818;9.312;2023-03-14T04:20:35;2.55;;;0.80;;
18172;SDS011;9211;48.818;9.312;2023-03-14T04:23:03;4.77;;;0.83;;
18172;SDS011;9211;48.818;9.312;2023-03-14T04:25:30;3.58;;;0.80;;
18172;SDS011;9211;48.818;9.312;2023-03-14T04:27:59;3.47;;;0.70;;
18172;SDS011;9211;48.818;9.312;2023-03-14T04:30:28;3.15;;;0.50;;
18172;SDS011;9211;48.818;9.312;2023-03-14T04:32:58;2.28;;;0.60;;
18172;SDS011;9211;48.818;9.312;2023-03-14T04:35:27;1.77;;;0.70;;
18172;SDS011;9211;48.818;9.312;2023-03-14T04:37:59;3.78;;;0.60;;
18172;SDS011;9211;48.818;9.312;2023-03-14T04:40:29;3.70;;;0.73;;
18172;SDS011;9211;48.818;9.312;2023-03-14T04:43:00;6.40;;;1.33;;
18172;SDS011;9211;48.818;9.312;2023-03-14T04:45:28;3.88;;;0.70;;
18172;SDS011;9211;48.818;9.312;2023-03-14T04:47:58;3.17;;;0.70;;
18172;SDS011;9211;48.818;9.312;2023-03-14T04:50:25;3.40;;;1.00;;
18172;SDS011;9211;48.818;9.312;2023-03-14T04:52:52;3.03;;;0.60;;
18172;SDS011;9211;48.818;9.312;2023-03-14T04:55:21;4.55;;;0.80;;
18172;SDS011;9211;48.818;9.312;2023-03-14T04:57:48;3.85;;;0.80;;
18172;SDS011;9211;48.818;9.312;2023-03-14T05:00:15;3.85;;;0.70;;
18172;SDS011;9211;48.818;9.312;2023-03-14T05:02:49;2.63;;;0.70;;
18172;SDS011;9211;48.818;9.312;2023-03-14T05:05:28;3.07;;;0.70;;
18172;SDS011;9211;48.818;9.312;2023-03-14T05:08:07;4.25;;;0.77;;
18172;SDS011;9211;48.818;9.312;2023-03-14T05:10:41;3.40;;;0.60;;
18172;SDS011;9211;48.818;9.312;2023-03-14T05:13:18;3.83;;;0.80;;
18172;SDS011;9211;48.818;9.312;2023-03-14T05:16:05;5.10;;;0.80;;
18172;SDS011;9211;48.818;9.312;2023-03-14T05:18:52;2.67;;;0.65;;
18172;SDS011;9211;48.818;9.312;2023-03-14T05:21:57;3.17;;;0.80;;
18172;SDS011;9211;48.818;9.312;2023-03-14T05:24:54;4.25;;;0.63;;
18172;SDS011;9211;48.818;9.312;2023-03-14T05:27:46;4.22;;;0.70;;
18172;SDS011;9211;48.818;9.312;2023-03-14T05:30:32;1.90;;;0.60;;
18172;SDS011;9211;48.818;9.312;2023-03-14T05:33:22;2.30;;;0.60;;
18172;SDS011;9211;48.818;9.312;2023-03-14T05:36:07;2.85;;;0.70;;
18172;SDS011;9211;48.818;9.312;2023-03-14T05:38:58;5.55;;;0.70;;
18172;SDS011;9211;48.818;9.312;2023-03-14T05:41:42;2.50;;;0.55;;
18172;SDS011;9211;48.818;9.312;2023-03-14T05:44:26;4.15;;;0.80;;
18172;SDS011;9211;48.818;9.312;2023-03-14T05:47:13;4.20;;;0.63;;
18172;SDS011;9211;48.818;9.312;2023-03-14T05:49:50;3.08;;;0.57;;
18172;SDS011;9211;48.818;9.312;2023-03-14T05:52:35;3.15;;;0.60;;
18172;SDS011;9211;48.818;9.312;2023-03-14T05:55:15;4.75;;;0.60;;
18172;SDS011;9211;48.818;9.312;2023-03-14T05:57:53;2.55;;;0.65;;
18172;SDS011;9211;48.818;9.312;2023-03-14T06:00:48;3.08;;;0.70;;
18172;SDS011;9211;48.818;9.312;2023-03-14T06:03:28;3.47;;;0.70;;
18172;SDS011;9211;48.818;9.312;2023-03-14T06:05:55;3.40;;;0.73;;
18172;SDS011;9211;48.818;9.312;2023-03-14T06:08:23;5.50;;;0.60;;
18172;SDS011;9211;48.818;9.312;2023-03-14T06:10:50;3.23;;;0.73;;
18172;SDS011;9211;48.818;9.312;2023-03-14T06:13:18;3.38;;;0.68;;
18172;SDS011;9211;48.818;9.312;2023-03-14T06:15:47;4.30;;;0.70;;
18172;SDS011;9211;48.818;9.312;2023-03-14T06:18:14;3.22;;;0.73;;
18172;SDS011;9211;48.818;9.312;2023-03-14T06:20:42;3.38;;;0.60;;
18172;SDS011;9211;48.818;9.312;2023-03-14T06:23:13;3.58;;;0.68;;
18172;SDS011;9211;48.818;9.312;2023-03-14T06:25:40;1.83;;;0.60;;
18172;SDS011;9211;48.818;9.312;2023-03-14T06:28:07;3.72;;;0.80;;
18172;SDS011;9211;48.818;9.312;2023-03-14T06:30:34;3.30;;;0.70;;
18172;SDS011;9211;48.818;9.312;2023-03-14T06:33:03;2.72;;;0.55;;
18172;SDS011;9211;48.818;9.312;2023-03-14T06:35:30;2.17;;;0.43;;
18172;SDS011;9211;48.818;9.312;2023-03-14T06:37:57;3.60;;;0.60;;
18172;SDS011;9211;48.818;9.312;2023-03-14T06:40:25;2.47;;;0.73;;
18172;SDS011;9211;48.818;9.312;2023-03-14T06:43:04;4.93;;;0.70;;
18172;SDS011;9211;48.818;9.312;2023-03-14T06:45:32;3.75;;;0.70;;
18172;SDS011;9211;48.818;9.312;2023-03-14T06:48:01;2.08;;;0.65;;
18172;SDS011;9211;48.818;9.312;2023-03-14T06:50:37;2.87;;;0.90;;
18172;SDS011;9211;48.818;9.312;2023-03-14T06:53:04;3.67;;;0.70;;
18172;SDS011;9211;48.818;9.312;2023-03-14T06:55:32;4.40;;;0.80;;
18172;SDS011;9211;48.818;9.312;2023-03-14T06:57:59;3.10;;;0.70;;
18172;SDS011;9211;48.818;9.312;2023-03-14T07:00:27;2.97;;;0.60;;
18172;SDS011;9211;48.818;9.312;2023-03-14T07:02:56;1.83;;;0.60;;
18172;SDS011;9211;48.818;9.312;2023-03-14T07:05:34;4.10;;;0.57;;
18172;SDS011;9211;48.818;9.312;2023-03-14T07:08:02;1.90;;;0.50;;
18172;SDS011;9211;48.818;9.312;2023-03-14T07:10:29;3.42;;;0.50;;
18172;SDS011;9211;48.818;9.312;2023-03-14T07:12:56;2.28;;;0.60;;
18172;SDS011;9211;48.818;9.312;2023-03-14T07:15:26;3.58;;;0.70;;
18172;SDS011;9211;48.818;9.312;2023-03-14T07:17:57;2.20;;;0.70;;
18172;SDS011;9211;48.818;9.312;2023-03-14T07:20:25;2.75;;;0.70;;
18172;SDS011;9211;48.818;9.312;2023-03-14T07:22:53;2.70;;;0.65;;
18172;SDS011;9211;48.818;9.312;2023-03-14T07:25:31;1.80;;;0.67;;
18172;SDS011;9211;48.818;9.312;2023-03-14T07:27:58;2.40;;;0.60;;
18172;SDS011;9211;48.818;9.312;2023-03-14T07:30:26;3.10;;;0.70;;
18172;SDS011;9211;48.818;9.312;2023-03-14T07:32:54;2.17;;;0.57;;
18172;SDS011;9211;48.818;9.312;2023-03-14T07:35:23;1.90;;;0.60;;
18172;SDS011;9211;48.818;9.312;2023-03-14T07:37:51;5.97;;;0.65;;
18172;SDS011;9211;48.818;9.312;2023-03-14T07:40:26;2.20;;;0.50;;
18172;SDS011;9211;48.818;9.312;2023-03-14T07:42:53;2.40;;;0.65;;
18172;SDS011;9211;48.818;9.312;2023-03-14T07:45:25;2.08;;;0.57;;
18172;SDS011;9211;48.818;9.312;2023-03-14T07:47:52;1.75;;;0.68;;
18172;SDS011;9211;48.818;9.312;2023-03-14T07:50:22;4.60;;;0.80;;
18172;SDS011;9211;48.818;9.312;2023-03-14T07:52:49;1.33;;;0.50;;
18172;SDS011;9211;48.818;9.312;2023-03-14T07:55:16;2.88;;;0.60;;
18172;SDS011;9211;48.818;9.312;2023-03-14T07:57:45;2.78;;;0.50;;
18172;SDS011;9211;48.818;9.312;2023-03-14T08:00:12;3.72;;;0.50;;
18172;SDS011;9211;48.818;9.312;2023-03-14T08:02:40;1.83;;;0.45;;
18172;SDS011;9211;48.818;9.312;2023-03-14T08:05:07;1.63;;;0.40;;
18172;SDS011;9211;48.818;9.312;2023-03-14T08:07:35;1.90;;;0.60;;
18172;SDS011;9211;48.818;9.312;2023-03-14T08:10:02;1.88;;;0.60;;
18172;SDS011;9211;48.818;9.312;2023-03-14T08:12:30;3.22;;;0.57;;
18172;SDS011;9211;48.818;9.312;2023-03-14T08:14:58;2.40;;;0.50;;
18172;SDS011;9211;48.818;9.312;2023-03-14T08:17:25;3.65;;;0.50;;
18172;SDS011;9211;48.818;9.312;2023-03-14T08:19:52;1.17;;;0.40;;
18172;SDS011;9211;48.818;9.312;2023-03-14T08:22:19;1.20;;;0.40;;
18172;SDS011;9211;48.818;9.312;2023-03-14T08:24:46;2.05;;;0.40;;
18172;SDS011;9211;48.818;9.312;2023-03-14T08:27:13;1.17;;;0.35;;
18172;SDS011;9211;48.818;9.312;2023-03-14T08:29:40;3.20;;;0.40;;
18172;SDS011;9211;48.818;9.312;2023-03-14T08:32:09;2.28;;;0.40;;
18172;SDS011;9211;48.818;9.312;2023-03-14T08:34:36;1.13;;;0.30;;
18172;SDS011;9211;48.818;9.312;2023-03-14T08:37:04;2.45;;;0.40;;
18172;SDS011;9211;48.818;9.312;2023-03-14T08:39:31;1.30;;;0.40;;
18172;SDS011;9211;48.818;9.312;2023-03-14T08:41:58;1.80;;;0.60;;
18172;SDS011;9211;48.818;9.312;2023-03-14T08:44:25;2.38;;;0.52;;
18172;SDS011;9211;48.818;9.312;2023-03-14T08:46:52;1.73;;;0.50;;
18172;SDS011;9211;48.818;9.312;2023-03-14T08:49:21;2.27;;;0.40;;
18172;SDS011;9211;48.818;9.312;2023-03-14T08:51:48;1.52;;;0.40;;
18172;SDS011;9211;48.818;9.312;2023-03-14T08:54:14;1.40;;;0.40;;
18172;SDS011;9211;48.818;9.312;2023-03-14T08:56:41;2.70;;;0.30;;
18172;SDS011;9211;48.818;9.312;2023-03-14T08:59:08;2.55;;;0.40;;
18172;SDS011;9211;48.818;9.312;2023-03-14T09:01:36;1.15;;;0.40;;
18172;SDS011;9211;48.818;9.312;2023-03-14T09:04:03;2.90;;;0.50;;
18172;SDS011;9211;48.818;9.312;2023-03-14T09:06:31;1.67;;;0.33;;
18172;SDS011;9211;48.818;9.312;2023-03-14T09:08:58;1.92;;;0.38;;
18172;SDS011;9211;48.818;9.312;2023-03-14T09:11:25;1.35;;;0.30;;
18172;SDS011;9211;48.818;9.312;2023-03-14T09:13:52;2.50;;;0.40;;
18172;SDS011;9211;48.818;9.312;2023-03-14T09:16:19;1.55;;;0.30;;
18172;SDS011;9211;48.818;9.312;2023-03-14T09:18:46;1.33;;;0.20;;
18172;SDS011;9211;48.818;9.312;2023-03-14T09:21:13;1.33;;;0.30;;
18172;SDS011;9211;48.818;9.312;2023-03-14T09:23:42;1.73;;;0.25;;
18172;SDS011;9211;48.818;9.312;2023-03-14T09:26:10;0.90;;;0.30;;
18172;SDS011;9211;48.818;9.312;2023-03-14T09:28:37;1.42;;;0.40;;
18172;SDS011;9211;48.818;9.312;2023-03-14T09:31:05;1.40;;;0.30;;
18172;SDS011;9211;48.818;9.312;2023-03-14T09:33:33;1.63;;;0.40;;
18172;SDS011;9211;48.818;9.312;2023-03-14T09:36:00;1.10;;;0.40;;
18172;SDS011;9211;48.818;9.312;2023-03-14T09:38:27;1.40;;;0.30;;
18172;SDS011;9211;48.818;9.312;2023-03-14T09:40:56;0.75;;;0.30;;
18172;SDS011;9211;48.818;9.312;2023-03-14T09:43:25;2.08;;;0.40;;
18172;SDS011;9211;48.818;9.312;2023-03-14T09:45:54;1.17;;;0.30;;
18172;SDS011;9211;48.818;9.312;2023-03-14T09:48:24;0.68;;;0.30;;
18172;SDS011;9211;48.818;9.312;2023-03-14T09:50:56;1.13;;;0.30;;
18172;SDS011;9211;48.818;9.312;2023-03-14T09:53:28;1.33;;;0.20;;
18172;SDS011;9211;48.818;9.312;2023-03-14T09:56:04;1.00;;;0.30;;
18172;SDS011;9211;48.818;9.312;2023-03-14T09:58:35;0.93;;;0.32;;
18172;SDS011;9211;48.818;9.312;2023-03-14T10:01:03;0.95;;;0.20;;
18172;SDS011;9211;48.818;9.312;2023-03-14T10:03:31;1.80;;;0.40;;
18172;SDS011;9211;48.818;9.312;2023-03-14T10:06:00;0.97;;;0.30;;
18172;SDS011;9211;48.818;9.312;2023-03-14T10:08:27;1.70;;;0.40;;
18172;SDS011;9211;48.818;9.312;2023-03-14T10:10:54;0.77;;;0.30;;
18172;SDS011;9211;48.818;9.312;2023-03-14T10:13:23;1.38;;;0.22;;
18172;SDS011;9211;48.818;9.312;2023-03-14T10:15:53;0.60;;;0.20;;
18172;SDS011;9211;48.818;9.312;2023-03-14T10:18:22;0.73;;;0.20;;
18172;SDS011;9211;48.818;9.312;2023-03-14T10:21:00;1.30;;;0.30;;
18172;SDS011;9211;48.818;9.312;2023-03-14T10:23:30;0.60;;;0.30;;
18172;SDS011;9211;48.818;9.312;2023-03-14T10:26:01;1.40;;;0.20;;
18172;SDS011;9211;48.818;9.312;2023-03-14T10:28:34;1.20;;;0.30;;
18172;SDS011;9211;48.818;9.312;2023-03-14T10:31:05;0.60;;;0.20;;
18172;SDS011;9211;48.818;9.312;2023-03-14T10:33:33;1.90;;;0.30;;
18172;SDS011;9211;48.818;9.312;2023-03-14T10:36:02;1.07;;;0.30;;
18172;SDS011;9211;48.818;9.312;2023-03-14T10:38:33;0.57;;;0.20;;
18172;SDS011;9211;48.818;9.312;2023-03-14T10:41:01;0.52;;;0.30;;
18172;SDS011;9211;48.818;9.312;2023-03-14T10:43:41;1.20;;;0.30;;
18172;SDS011;9211;48.818;9.312;2023-03-14T10:46:09;0.55;;;0.20;;
18172;SDS011;9211;48.818;9.312;2023-03-14T10:49:04;2.10;;;0.20;;
18172;SDS011;9211;48.818;9.312;2023-03-14T10:51:32;0.77;;;0.28;;
18172;SDS011;9211;48.818;9.312;2023-03-14T10:53:59;0.70;;;0.20;;
18172;SDS011;9211;48.818;9.312;2023-03-14T10:56:33;1.17;;;0.20;;
18172;SDS011;9211;48.818;9.312;2023-03-14T10:59:03;0.63;;;0.20;;
18172;SDS011;9211;48.818;9.312;2023-03-14T11:01:36;1.20;;;0.30;;
18172;SDS011;9211;48.818;9.312;2023-03-14T11:04:14;0.70;;;0.20;;
18172;SDS011;9211;48.818;9.312;2023-03-14T11:06:48;0.93;;;0.20;;
18172;SDS011;9211;48.818;9.312;2023-03-14T11:09:24;0.80;;;0.20;;
18172;SDS011;9211;48.818;9.312;2023-03-14T11:11:56;0.40;;;0.20;;
18172;SDS011;9211;48.818;9.312;2023-03-14T11:14:31;1.40;;;0.30;;
18172;SDS011;9211;48.818;9.312;2023-03-14T11:17:04;2.08;;;0.20;;
18172;SDS011;9211;48.818;9.312;2023-03-14T11:19:42;0.77;;;0.28;;
18172;SDS011;9211;48.818;9.312;2023-03-14T11:22:28;1.20;;;0.35;;
18172;SDS011;9211;48.818;9.312;2023-03-14T11:25:09;0.60;;;0.20;;
18172;SDS011;9211;48.818;9.312;2023-03-14T11:27:44;0.70;;;0.20;;
18172;SDS011;9211;48.818;9.312;2023-03-14T11:30:21;0.70;;;0.30;;
18172;SDS011;9211;48.818;9.312;2023-03-14T11:32:57;0.60;;;0.30;;
18172;SDS011;9211;48.818;9.312;2023-03-14T11:35:30;0.40;;;0.30;;
18172;SDS011;9211;48.818;9.312;2023-03-14T11:38:03;1.10;;;0.22;;
18172;SDS011;9211;48.818;9.312;2023-03-14T11:40:37;0.45;;;0.20;;
18172;SDS011;9211;48.818;9.312;2023-03-14T11:43:08;0.53;;;0.20;;
18172;SDS011;9211;48.818;9.312;2023-03-14T11:45:41;0.70;;;0.20;;
18172;SDS011;9211;48.818;9.312;2023-03-14T11:48:22;0.60;;;0.30;;
18172;SDS011;9211;48.818;9.312;2023-03-14T11:50:57;0.57;;;0.20;;
18172;SDS011;9211;48.818;9.312;2023-03-14T11:53:30;0.28;;;0.20;;
18172;SDS011;9211;48.818;9.312;2023-03-14T11:56:08;0.50;;;0.25;;
18172;SDS011;9211;48.818;9.312;2023-03-14T11:58:50;1.90;;;0.30;;
18172;SDS011;9211;48.818;9.312;2023-03-14T12:01:23;1.60;;;0.30;;
18172;SDS011;9211;48.818;9.312;2023-03-14T12:04:00;0.60;;;0.30;;
18172;SDS011;9211;48.818;9.312;2023-03-14T12:06:35;0.38;;;0.22;;
18172;SDS011;9211;48.818;9.312;2023-03-14T12:09:11;0.80;;;0.20;;
18172;SDS011;9211;48.818;9.312;2023-03-14T12:11:40;0.90;;;0.30;;
18172;SDS011;9211;48.818;9.312;2023-03-14T12:14:20;0.25;;;0.20;;
18172;SDS011;9211;48.818;9.312;2023-03-14T12:16:53;0.40;;;0.20;;
18172;SDS011;9211;48.818;9.312;2023-03-14T12:19:28;0.93;;;0.20;;
18172;SDS011;9211;48.818;9.312;2023-03-14T12:21:59;0.65;;;0.30;;
18172;SDS011;9211;48.818;9.312;2023-03-14T12:24:32;0.85;;;0.20;;
18172;SDS011;9211;48.818;9.312;2023-03-14T12:27:02;0.60;;;0.20;;
18172;SDS011;9211;48.818;9.312;2023-03-14T12:29:30;0.40;;;0.20;;
18172;SDS011;9211;48.818;9.312;2023-03-14T12:32:09;0.80;;;0.20;;
18172;SDS011;9211;48.818;9.312;2023-03-14T12:34:48;0.30;;;0.20;;
18172;SDS011;9211;48.818;9.312;2023-03-14T12:37:29;0.40;;;0.30;;
18172;SDS011;9211;48.818;9.312;2023-03-14T12:40:09;0.55;;;0.28;;
18172;SDS011;9211;48.818;9.312;2023-03-14T12:42:51;0.52;;;0.30;;
18172;SDS011;9211;48.818;9.312;2023-03-14T12:45:24;2.60;;;0.43;;
18172;SDS011;9211;48.818;9.312;2023-03-14T12:47:56;1.33;;;0.40;;
18172;SDS011;9211;48.818;9.312;2023-03-14T12:50:33;1.90;;;0.50;;
18172;SDS011;9211;48.818;9.312;2023-03-14T12:53:07;1.20;;;0.50;;
18172;SDS011;9211;48.818;9.312;2023-03-14T12:56:09;1.65;;;0.50;;
18172;SDS011;9211;48.818;9.312;2023-03-14T12:58:47;2.85;;;0.70;;
18172;SDS011;9211;48.818;9.312;2023-03-14T13:01:23;2.72;;;0.70;;
18172;SDS011;9211;48.818;9.312;2023-03-14T13:03:51;2.88;;;0.80;;
18172;SDS011;9211;48.818;9.312;2023-03-14T13:12:16;3.85;;;0.60;;
18172;SDS011;9211;48.818;9.312;2023-03-14T13:14:45;0.73;;;0.43;;
18172;SDS011;9211;48.818;9.312;2023-03-14T13:17:14;2.40;;;0.50;;
18172;SDS011;9211;48.818;9.312;2023-03-14T13:19:49;1.30;;;0.57;;
18172;SDS011;9211;48.818;9.312;2023-03-14T13:22:20;2.05;;;0.50;;
18172;SDS011;9211;48.818;9.312;2023-03-14T13:24:56;1.27;;;0.55;;
18172;SDS011;9211;48.818;9.312;2023-03-14T13:27:25;3.55;;;0.68;;
18172;SDS011;9211;48.818;9.312;2023-03-14T13:29:52;2.55;;;0.70;;
18172;SDS011;9211;48.818;9.312;2023-03-14T13:32:20;1.52;;;0.60;;
18172;SDS011;9211;48.818;9.312;2023-03-14T13:34:49;1.92;;;0.60;;
18172;SDS011;9211;48.818;9.312;2023-03-14T13:37:16;2.88;;;0.60;;
18172;SDS011;9211;48.818;9.312;2023-03-14T13:39:48;1.52;;;0.50;;
18172;SDS011;9211;48.818;9.312;2023-03-14T13:42:16;3.15;;;0.50;;
18172;SDS011;9211;48.818;9.312;2023-03-14T13:44:44;4.00;;;0.63;;
18172;SDS011;9211;48.818;9.312;2023-03-14T13:47:13;3.38;;;0.60;;
18172;SDS011;9211;48.818;9.312;2023-03-14T13:49:42;2.22;;;0.50;;
18172;SDS011;9211;48.818;9.312;2023-03-14T13:52:25;2.15;;;0.60;;
18172;SDS011;9211;48.818;9.312;2023-03-14T13:54:55;2.35;;;0.60;;
18172;SDS011;9211;48.818;9.312;2023-03-14T13:57:23;2.50;;;0.65;;
18172;SDS011;9211;48.818;9.312;2023-03-14T14:00:00;2.25;;;0.70;;
18172;SDS011;9211;48.818;9.312;2023-03-14T14:02:31;2.72;;;0.70;;
18172;SDS011;9211;48.818;9.312;2023-03-14T14:04:59;2.50;;;0.52;;
18172;SDS011;9211;48.818;9.312;2023-03-14T14:07:28;3.05;;;0.70;;
18172;SDS011;9211;48.818;9.312;2023-03-14T14:09:56;3.50;;;0.60;;
18172;SDS011;9211;48.818;9.312;2023-03-14T14:12:26;4.50;;;0.90;;
18172;SDS011;9211;48.818;9.312;2023-03-14T14:14:55;3.00;;;0.90;;
18172;SDS011;9211;48.818;9.312;2023-03-14T14:17:26;1.90;;;0.50;;
18172;SDS011;9211;48.818;9.312;2023-03-14T14:19:58;3.72;;;0.50;;
18172;SDS011;9211;48.818;9.312;2023-03-14T14:22:29;2.47;;;0.60;;
18172;SDS011;9211;48.818;9.312;2023-03-14T14:24:57;2.70;;;0.70;;
18172;SDS011;9211;48.818;9.312;2023-03-14T14:27:26;4.13;;;0.83;;
18172;SDS011;9211;48.818;9.312;2023-03-14T14:29:57;2.42;;;0.70;;
18172;SDS011;9211;48.818;9.312;2023-03-14T14:32:26;6.20;;;1.00;;
18172;SDS011;9211;48.818;9.312;2023-03-14T14:34:56;2.50;;;0.80;;
18172;SDS011;9211;48.818;9.312;2023-03-14T14:37:25;3.72;;;0.95;;
18172;SDS011;9211;48.818;9.312;2023-03-14T14:39:55;4.18;;;0.98;;
18172;SDS011;9211;48.818;9.312;2023-03-14T14:42:25;2.70;;;0.80;;
18172;SDS011;9211;48.818;9.312;2023-03-14T14:44:55;4.38;;;1.00;;
18172;SDS011;9211;48.818;9.312;2023-03-14T14:47:23;4.97;;;1.10;;
18172;SDS011;9211;48.818;9.312;2023-03-14T14:49:53;5.15;;;1.50;;
18172;SDS011;9211;48.818;9.312;2023-03-14T14:52:22;5.35;;;1.70;;
18172;SDS011;9211;48.818;9.312;2023-03-14T14:55:01;3.83;;;0.85;;
18172;SDS011;9211;48.818;9.312;2023-03-14T14:57:30;5.50;;;1.30;;
18172;SDS011;9211;48.818;9.312;2023-03-14T15:00:02;5.40;;;1.50;;
18172;SDS011;9211;48.818;9.312;2023-03-14T15:02:35;5.15;;;1.83;;
18172;SDS011;9211;48.818;9.312;2023-03-14T15:05:11;4.78;;;1.10;;
18172;SDS011;9211;48.818;9.312;2023-03-14T15:07:39;4.57;;;1.30;;
18172;SDS011;9211;48.818;9.312;2023-03-14T15:10:09;5.50;;;1.30;;
18172;SDS011;9211;48.818;9.312;2023-03-14T15:12:37;7.90;;;2.17;;
18172;SDS011;9211;48.818;9.312;2023-03-14T15:15:04;4.65;;;1.38;;
18172;SDS011;9211;48.818;9.312;2023-03-14T15:17:32;5.45;;;1.05;;
18172;SDS011;9211;48.818;9.312;2023-03-14T15:19:59;4.53;;;1.70;;
18172;SDS011;9211;48.818;9.312;2023-03-14T15:22:26;6.65;;;1.30;;
18172;SDS011;9211;48.818;9.312;2023-03-14T15:24:53;6.20;;;1.30;;
18172;SDS011;9211;48.818;9.312;2023-03-14T15:27:21;5.28;;;1.50;;
18172;SDS011;9211;48.818;9.312;2023-03-14T15:29:48;4.67;;;1.43;;
18172;SDS011;9211;48.818;9.312;2023-03-14T15:32:16;4.37;;;1.30;;